sensor_id;sensor_type;location;lat;lon;timestamp;temperature;humidity
44509;DHT22;30214;52.246;14.408;2023-04-03T00:01:56;0.60;99.90
44509;DHT22;30214;52.246;14.408;2023-04-03T00:04:23;0.60;99.90
44509;DHT22;30214;52.246;14.408;2023-04-03T00:06:51;0.60;99.90
44509;DHT22;30214;52.246;14.408;2023-04-03T00:09:19;0.70;99.90
44509;DHT22;30214;52.246;14.408;2023-04-03T00:11:46;0.60;99.90
44509;DHT22;30214;52.246;14.408;2023-04-03T00:14:13;0.60;99.90
44509;DHT22;30214;52.246;14.408;2023-04-03T00:16:40;0.60;99.90
44509;DHT22;30214;52.246;14.408;2023-04-03T00:19:08;0.60;99.90
44509;DHT22;30214;52.246;14.408;2023-04-03T00:21:37;0.60;99.90
44509;DHT22;30214;52.246;14.408;2023-04-03T00:24:05;0.50;99.90
44509;DHT22;30214;52.246;14.408;2023-04-03T00:26:34;0.50;99.90
44509;DHT22;30214;52.246;14.408;2023-04-03T00:29:01;0.50;99.90
44509;DHT22;30214;52.246;14.408;2023-04-03T00:31:28;0.40;99.90
44509;DHT22;30214;52.246;14.408;2023-04-03T00:33:56;0.40;99.90
44509;DHT22;30214;52.246;14.408;2023-04-03T00:36:23;0.50;99.90
44509;DHT22;30214;52.246;14.408;2023-04-03T00:38:51;0.40;99.90
44509;DHT22;30214;52.246;14.408;2023-04-03T00:41:18;0.40;99.90
44509;DHT22;30214;52.246;14.408;2023-04-03T00:43:46;0.40;99.90
44509;DHT22;30214;52.246;14.408;2023-04-03T00:46:13;0.40;99.90
44509;DHT22;30214;52.246;14.408;2023-04-03T00:48:42;0.30;99.90
44509;DHT22;30214;52.246;14.408;2023-04-03T00:51:13;0.30;99.90
44509;DHT22;30214;52.246;14.408;2023-04-03T00:53:46;0.40;99.90
44509;DHT22;30214;52.246;14.408;2023-04-03T00:56:17;0.40;99.90
44509;DHT22;30214;52.246;14.408;2023-04-03T00:58:48;0.30;99.90
44509;DHT22;30214;52.246;14.408;2023-04-03T01:01:20;0.30;99.90
44509;DHT22;30214;52.246;14.408;2023-04-03T01:03:49;0.20;99.90
44509;DHT22;30214;52.246;14.408;2023-04-03T01:06:21;0.10;99.90
44509;DHT22;30214;52.246;14.408;2023-04-03T01:08:52;0.10;99.90
44509;DHT22;30214;52.246;14.408;2023-04-03T01:11:19;0.10;99.90
44509;DHT22;30214;52.246;14.408;2023-04-03T01:13:49;0.20;99.90
44509;DHT22;30214;52.246;14.408;2023-04-03T01:16:16;0.10;99.90
44509;DHT22;30214;52.246;14.408;2023-04-03T01:18:44;0.20;99.90
44509;DHT22;30214;52.246;14.408;2023-04-03T01:21:28;0.10;99.90
44509;DHT22;30214;52.246;14.408;2023-04-03T01:24:24;0.10;99.90
44509;DHT22;30214;52.246;14.408;2023-04-03T01:26:57;0.10;99.90
44509;DHT22;30214;52.246;14.408;2023-04-03T01:29:26;0.00;99.90
44509;DHT22;30214;52.246;14.408;2023-04-03T01:31:55;-0.10;99.90
44509;DHT22;30214;52.246;14.408;2023-04-03T01:34:25;-0.10;99.90
44509;DHT22;30214;52.246;14.408;2023-04-03T01:36:54;-0.10;99.90
44509;DHT22;30214;52.246;14.408;2023-04-03T01:39:22;-0.10;99.90
44509;DHT22;30214;52.246;14.408;2023-04-03T01:41:49;-0.10;99.90
44509;DHT22;30214;52.246;14.408;2023-04-03T01:44:26;-0.10;99.90
44509;DHT22;30214;52.246;14.408;2023-04-03T01:46:54;-0.20;99.90
44509;DHT22;30214;52.246;14.408;2023-04-03T01:49:23;-0.20;99.90
44509;DHT22;30214;52.246;14.408;2023-04-03T01:51:50;-0.40;99.90
44509;DHT22;30214;52.246;14.408;2023-04-03T01:54:17;-0.40;99.90
44509;DHT22;30214;52.246;14.408;2023-04-03T01:56:44;-0.40;99.90
44509;DHT22;30214;52.246;14.408;2023-04-03T01:59:12;-0.50;99.90
44509;DHT22;30214;52.246;14.408;2023-04-03T02:01:43;-0.60;99.90
44509;DHT22;30214;52.246;14.408;2023-04-03T02:04:12;-0.50;99.90
44509;DHT22;30214;52.246;14.408;2023-04-03T02:06:40;-0.50;99.90
44509;DHT22;30214;52.246;14.408;2023-04-03T02:09:08;-0.60;99.90
44509;DHT22;30214;52.246;14.408;2023-04-03T02:11:35;-0.60;99.90
44509;DHT22;30214;52.246;14.408;2023-04-03T02:14:02;-0.60;99.90
44509;DHT22;30214;52.246;14.408;2023-04-03T02:16:29;-0.60;99.90
44509;DHT22;30214;52.246;14.408;2023-04-03T02:18:56;-0.60;99.90
44509;DHT22;30214;52.246;14.408;2023-04-03T02:21:25;-0.60;99.90
44509;DHT22;30214;52.246;14.408;2023-04-03T02:23:53;-0.60;99.90
44509;DHT22;30214;52.246;14.408;2023-04-03T02:26:20;-0.60;99.90
44509;DHT22;30214;52.246;14.408;2023-04-03T02:28:47;-0.50;99.90
44509;DHT22;30214;52.246;14.408;2023-04-03T02:31:14;-0.50;99.90
44509;DHT22;30214;52.246;14.408;2023-04-03T02:33:47;-0.50;99.90
44509;DHT22;30214;52.246;14.408;2023-04-03T02:36:15;-0.50;99.90
44509;DHT22;30214;52.246;14.408;2023-04-03T02:38:49;-0.60;99.90
44509;DHT22;30214;52.246;14.408;2023-04-03T02:41:16;-0.60;99.90
44509;DHT22;30214;52.246;14.408;2023-04-03T02:43:43;-0.60;99.90
44509;DHT22;30214;52.246;14.408;2023-04-03T02:46:11;-0.60;99.90
44509;DHT22;30214;52.246;14.408;2023-04-03T02:48:40;-0.60;99.90
44509;DHT22;30214;52.246;14.408;2023-04-03T02:51:07;-0.60;99.90
44509;DHT22;30214;52.246;14.408;2023-04-03T02:53:35;-0.60;99.90
44509;DHT22;30214;52.246;14.408;2023-04-03T02:56:11;-0.60;99.90
44509;DHT22;30214;52.246;14.408;2023-04-03T02:58:38;-0.70;99.90
44509;DHT22;30214;52.246;14.408;2023-04-03T03:01:07;-0.70;99.90
44509;DHT22;30214;52.246;14.408;2023-04-03T03:03:34;-0.60;99.90
44509;DHT22;30214;52.246;14.408;2023-04-03T03:06:02;-0.60;99.90
44509;DHT22;30214;52.246;14.408;2023-04-03T03:08:30;-0.60;99.90
44509;DHT22;30214;52.246;14.408;2023-04-03T03:10:57;-0.70;99.90
44509;DHT22;30214;52.246;14.408;2023-04-03T03:13:25;-0.70;99.90
44509;DHT22;30214;52.246;14.408;2023-04-03T03:15:53;-0.70;99.90
44509;DHT22;30214;52.246;14.408;2023-04-03T03:18:20;-0.60;99.90
44509;DHT22;30214;52.246;14.408;2023-04-03T03:20:51;-0.60;99.90
44509;DHT22;30214;52.246;14.408;2023-04-03T03:23:19;-0.60;99.90
44509;DHT22;30214;52.246;14.408;2023-04-03T03:25:46;-0.60;99.90
44509;DHT22;30214;52.246;14.408;2023-04-03T03:28:13;-0.60;99.90
44509;DHT22;30214;52.246;14.408;2023-04-03T03:30:42;-0.60;99.90
44509;DHT22;30214;52.246;14.408;2023-04-03T03:33:09;-0.70;99.90
44509;DHT22;30214;52.246;14.408;2023-04-03T03:35:36;-0.70;99.90
44509;DHT22;30214;52.246;14.408;2023-04-03T03:38:03;-0.70;99.90
44509;DHT22;30214;52.246;14.408;2023-04-03T03:40:31;-0.70;99.90
44509;DHT22;30214;52.246;14.408;2023-04-03T03:42:58;-0.70;99.90
44509;DHT22;30214;52.246;14.408;2023-04-03T03:45:26;-0.70;99.90
44509;DHT22;30214;52.246;14.408;2023-04-03T03:47:54;-0.70;99.90
44509;DHT22;30214;52.246;14.408;2023-04-03T03:50:21;-0.70;99.90
44509;DHT22;30214;52.246;14.408;2023-04-03T03:52:50;-0.70;99.90
44509;DHT22;30214;52.246;14.408;2023-04-03T03:55:17;-0.80;99.90
44509;DHT22;30214;52.246;14.408;2023-04-03T03:57:49;-0.80;99.90
44509;DHT22;30214;52.246;14.408;2023-04-03T04:00:16;-0.80;99.90
44509;DHT22;30214;52.246;14.408;2023-04-03T04:02:51;-0.90;99.90
44509;DHT22;30214;52.246;14.408;2023-04-03T04:05:22;-0.90;99.90
44509;DHT22;30214;52.246;14.408;2023-04-03T04:07:49;-0.90;99.90
44509;DHT22;30214;52.246;14.408;2023-04-03T04:10:18;-0.90;99.90
44509;DHT22;30214;52.246;14.408;2023-04-03T04:12:46;-0.90;99.90
44509;DHT22;30214;52.246;14.408;2023-04-03T04:15:15;-0.90;99.90
44509;DHT22;30214;52.246;14.408;2023-04-03T04:17:42;-0.90;99.90
44509;DHT22;30214;52.246;14.408;2023-04-03T04:20:11;-0.90;99.90
44509;DHT22;30214;52.246;14.408;2023-04-03T04:22:40;-0.90;99.90
44509;DHT22;30214;52.246;14.408;2023-04-03T04:25:09;-0.80;99.90
44509;DHT22;30214;52.246;14.408;2023-04-03T04:27:38;-0.80;99.90
44509;DHT22;30214;52.246;14.408;2023-04-03T04:30:06;-0.80;99.90
44509;DHT22;30214;52.246;14.408;2023-04-03T04:32:34;-0.90;99.90
44509;DHT22;30214;52.246;14.408;2023-04-03T04:35:03;-0.90;99.90
44509;DHT22;30214;52.246;14.408;2023-04-03T04:37:33;-0.90;99.90
44509;DHT22;30214;52.246;14.408;2023-04-03T04:40:02;-0.80;99.90
44509;DHT22;30214;52.246;14.408;2023-04-03T04:42:30;-0.80;99.90
44509;DHT22;30214;52.246;14.408;2023-04-03T04:44:58;-0.80;99.90
44509;DHT22;30214;52.246;14.408;2023-04-03T04:47:25;-0.80;99.90
44509;DHT22;30214;52.246;14.408;2023-04-03T04:49:52;-0.80;99.90
44509;DHT22;30214;52.246;14.408;2023-04-03T04:52:20;-0.70;99.90
44509;DHT22;30214;52.246;14.408;2023-04-03T04:54:47;-0.60;99.90
44509;DHT22;30214;52.246;14.408;2023-04-03T04:57:15;-0.40;99.90
44509;DHT22;30214;52.246;14.408;2023-04-03T04:59:43;-0.10;99.90
44509;DHT22;30214;52.246;14.408;2023-04-03T05:02:11;0.20;99.90
44509;DHT22;30214;52.246;14.408;2023-04-03T05:04:41;0.50;99.90
44509;DHT22;30214;52.246;14.408;2023-04-03T05:07:14;0.60;99.90
44509;DHT22;30214;52.246;14.408;2023-04-03T05:09:41;0.80;99.90
44509;DHT22;30214;52.246;14.408;2023-04-03T05:12:09;0.80;99.90
44509;DHT22;30214;52.246;14.408;2023-04-03T05:14:44;1.20;99.90
44509;DHT22;30214;52.246;14.408;2023-04-03T05:17:12;1.60;99.90
44509;DHT22;30214;52.246;14.408;2023-04-03T05:19:43;1.70;99.90
44509;DHT22;30214;52.246;14.408;2023-04-03T05:22:11;1.90;99.90
44509;DHT22;30214;52.246;14.408;2023-04-03T05:24:38;2.10;99.90
44509;DHT22;30214;52.246;14.408;2023-04-03T05:27:07;2.40;99.90
44509;DHT22;30214;52.246;14.408;2023-04-03T05:29:38;2.50;99.90
44509;DHT22;30214;52.246;14.408;2023-04-03T05:32:11;2.40;99.90
44509;DHT22;30214;52.246;14.408;2023-04-03T05:34:38;2.40;99.90
44509;DHT22;30214;52.246;14.408;2023-04-03T05:37:05;2.60;99.90
44509;DHT22;30214;52.246;14.408;2023-04-03T05:39:33;3.10;99.90
44509;DHT22;30214;52.246;14.408;2023-04-03T05:42:01;3.00;99.90
44509;DHT22;30214;52.246;14.408;2023-04-03T05:44:29;2.70;99.90
44509;DHT22;30214;52.246;14.408;2023-04-03T05:46:56;2.50;99.90
44509;DHT22;30214;52.246;14.408;2023-04-03T05:49:27;2.90;99.90
44509;DHT22;30214;52.246;14.408;2023-04-03T05:51:55;2.70;99.90
44509;DHT22;30214;52.246;14.408;2023-04-03T05:54:26;2.70;99.90
44509;DHT22;30214;52.246;14.408;2023-04-03T05:57:02;2.60;99.90
44509;DHT22;30214;52.246;14.408;2023-04-03T05:59:29;2.70;99.90
44509;DHT22;30214;52.246;14.408;2023-04-03T06:01:58;2.80;99.90
44509;DHT22;30214;52.246;14.408;2023-04-03T06:04:28;2.90;99.90
44509;DHT22;30214;52.246;14.408;2023-04-03T06:06:56;2.80;99.90
44509;DHT22;30214;52.246;14.408;2023-04-03T06:09:28;2.90;99.90
44509;DHT22;30214;52.246;14.408;2023-04-03T06:11:56;3.10;99.90
44509;DHT22;30214;52.246;14.408;2023-04-03T06:14:25;3.20;99.90
44509;DHT22;30214;52.246;14.408;2023-04-03T06:16:52;3.30;99.90
44509;DHT22;30214;52.246;14.408;2023-04-03T06:19:20;3.40;99.90
44509;DHT22;30214;52.246;14.408;2023-04-03T06:21:52;3.60;99.90
44509;DHT22;30214;52.246;14.408;2023-04-03T06:24:20;3.70;99.90
44509;DHT22;30214;52.246;14.408;2023-04-03T06:26:50;3.50;99.90
44509;DHT22;30214;52.246;14.408;2023-04-03T06:29:18;3.70;99.90
44509;DHT22;30214;52.246;14.408;2023-04-03T06:31:45;3.70;99.90
44509;DHT22;30214;52.246;14.408;2023-04-03T06:34:13;3.70;99.90
44509;DHT22;30214;52.246;14.408;2023-04-03T06:36:41;3.90;99.90
44509;DHT22;30214;52.246;14.408;2023-04-03T06:39:13;3.80;99.90
44509;DHT22;30214;52.246;14.408;2023-04-03T06:41:41;3.80;99.90
44509;DHT22;30214;52.246;14.408;2023-04-03T06:44:08;3.70;99.90
44509;DHT22;30214;52.246;14.408;2023-04-03T06:46:37;4.10;99.90
44509;DHT22;30214;52.246;14.408;2023-04-03T06:49:04;4.00;99.80
44509;DHT22;30214;52.246;14.408;2023-04-03T06:51:33;3.50;99.90
44509;DHT22;30214;52.246;14.408;2023-04-03T06:54:01;3.50;99.90
44509;DHT22;30214;52.246;14.408;2023-04-03T06:56:31;3.70;99.90
44509;DHT22;30214;52.246;14.408;2023-04-03T06:58:58;3.80;99.60
44509;DHT22;30214;52.246;14.408;2023-04-03T07:01:29;4.00;99.60
44509;DHT22;30214;52.246;14.408;2023-04-03T07:03:57;3.90;99.30
44509;DHT22;30214;52.246;14.408;2023-04-03T07:06:24;4.00;98.80
44509;DHT22;30214;52.246;14.408;2023-04-03T07:08:53;3.60;99.90
44509;DHT22;30214;52.246;14.408;2023-04-03T07:11:21;3.30;99.80
44509;DHT22;30214;52.246;14.408;2023-04-03T07:13:49;3.40;99.90
44509;DHT22;30214;52.246;14.408;2023-04-03T07:16:17;3.50;99.40
44509;DHT22;30214;52.246;14.408;2023-04-03T07:18:44;3.20;99.90
44509;DHT22;30214;52.246;14.408;2023-04-03T07:21:12;3.00;99.90
44509;DHT22;30214;52.246;14.408;2023-04-03T07:23:40;2.90;99.90
44509;DHT22;30214;52.246;14.408;2023-04-03T07:26:07;3.10;99.90
44509;DHT22;30214;52.246;14.408;2023-04-03T07:28:37;3.30;99.90
44509;DHT22;30214;52.246;14.408;2023-04-03T07:31:11;3.30;99.90
44509;DHT22;30214;52.246;14.408;2023-04-03T07:33:39;3.20;99.90
44509;DHT22;30214;52.246;14.408;2023-04-03T07:36:08;2.80;99.90
44509;DHT22;30214;52.246;14.408;2023-04-03T07:38:38;2.70;99.90
44509;DHT22;30214;52.246;14.408;2023-04-03T07:41:11;2.80;99.90
44509;DHT22;30214;52.246;14.408;2023-04-03T07:43:39;3.10;99.90
44509;DHT22;30214;52.246;14.408;2023-04-03T07:46:08;3.30;99.90
44509;DHT22;30214;52.246;14.408;2023-04-03T07:48:39;3.50;99.90
44509;DHT22;30214;52.246;14.408;2023-04-03T07:51:06;3.80;99.20
44509;DHT22;30214;52.246;14.408;2023-04-03T07:53:34;3.80;99.90
44509;DHT22;30214;52.246;14.408;2023-04-03T07:56:02;3.80;97.30
44509;DHT22;30214;52.246;14.408;2023-04-03T07:58:29;3.80;99.90
44509;DHT22;30214;52.246;14.408;2023-04-03T08:00:57;4.00;96.50
44509;DHT22;30214;52.246;14.408;2023-04-03T08:03:28;4.00;95.80
44509;DHT22;30214;52.246;14.408;2023-04-03T08:05:55;3.60;96.90
44509;DHT22;30214;52.246;14.408;2023-04-03T08:08:28;3.70;97.70
44509;DHT22;30214;52.246;14.408;2023-04-03T08:10:59;3.50;95.00
44509;DHT22;30214;52.246;14.408;2023-04-03T08:13:28;3.50;95.80
44509;DHT22;30214;52.246;14.408;2023-04-03T08:15:56;3.10;95.80
44509;DHT22;30214;52.246;14.408;2023-04-03T08:18:26;3.00;97.30
44509;DHT22;30214;52.246;14.408;2023-04-03T08:20:54;3.00;96.80
44509;DHT22;30214;52.246;14.408;2023-04-03T08:23:21;2.90;96.90
44509;DHT22;30214;52.246;14.408;2023-04-03T08:25:48;3.00;98.10
44509;DHT22;30214;52.246;14.408;2023-04-03T08:28:16;3.10;97.70
44509;DHT22;30214;52.246;14.408;2023-04-03T08:30:44;3.30;97.80
44509;DHT22;30214;52.246;14.408;2023-04-03T08:33:11;3.20;96.40
44509;DHT22;30214;52.246;14.408;2023-04-03T08:35:41;3.20;97.40
44509;DHT22;30214;52.246;14.408;2023-04-03T08:38:08;3.10;97.00
44509;DHT22;30214;52.246;14.408;2023-04-03T08:40:36;3.10;97.30
44509;DHT22;30214;52.246;14.408;2023-04-03T08:43:16;3.20;97.90
44509;DHT22;30214;52.246;14.408;2023-04-03T08:45:55;3.10;96.40
44509;DHT22;30214;52.246;14.408;2023-04-03T08:48:29;3.30;96.40
44509;DHT22;30214;52.246;14.408;2023-04-03T08:51:08;3.60;95.60
44509;DHT22;30214;52.246;14.408;2023-04-03T08:53:45;3.80;94.70
44509;DHT22;30214;52.246;14.408;2023-04-03T08:56:18;3.80;95.10
44509;DHT22;30214;52.246;14.408;2023-04-03T08:58:48;4.00;96.40
44509;DHT22;30214;52.246;14.408;2023-04-03T09:01:21;4.30;96.20
44509;DHT22;30214;52.246;14.408;2023-04-03T09:03:50;4.70;93.10
44509;DHT22;30214;52.246;14.408;2023-04-03T09:06:21;4.80;90.40
44509;DHT22;30214;52.246;14.408;2023-04-03T09:08:53;4.30;90.40
44509;DHT22;30214;52.246;14.408;2023-04-03T09:11:37;3.80;90.50
44509;DHT22;30214;52.246;14.408;2023-04-03T09:14:20;3.60;90.00
44509;DHT22;30214;52.246;14.408;2023-04-03T09:16:52;3.60;91.90
44509;DHT22;30214;52.246;14.408;2023-04-03T09:19:34;3.80;92.10
44509;DHT22;30214;52.246;14.408;2023-04-03T09:22:15;4.10;93.30
44509;DHT22;30214;52.246;14.408;2023-04-03T09:24:45;4.60;82.60
44509;DHT22;30214;52.246;14.408;2023-04-03T09:27:16;4.30;81.80
44509;DHT22;30214;52.246;14.408;2023-04-03T09:29:44;4.10;79.00
44509;DHT22;30214;52.246;14.408;2023-04-03T09:32:21;4.00;81.50
44509;DHT22;30214;52.246;14.408;2023-04-03T09:34:53;4.20;84.20
44509;DHT22;30214;52.246;14.408;2023-04-03T09:37:42;4.60;86.20
44509;DHT22;30214;52.246;14.408;2023-04-03T09:40:32;4.90;83.70
44509;DHT22;30214;52.246;14.408;2023-04-03T09:43:19;5.00;81.10
44509;DHT22;30214;52.246;14.408;2023-04-03T09:45:53;5.10;82.10
44509;DHT22;30214;52.246;14.408;2023-04-03T09:48:22;4.70;72.80
44509;DHT22;30214;52.246;14.408;2023-04-03T09:50:58;4.10;71.70
44509;DHT22;30214;52.246;14.408;2023-04-03T09:53:37;3.90;72.30
44509;DHT22;30214;52.246;14.408;2023-04-03T09:56:19;3.80;74.50
44509;DHT22;30214;52.246;14.408;2023-04-03T09:58:50;4.00;73.10
44509;DHT22;30214;52.246;14.408;2023-04-03T10:01:23;4.00;72.80
44509;DHT22;30214;52.246;14.408;2023-04-03T10:04:05;3.80;75.90
44509;DHT22;30214;52.246;14.408;2023-04-03T10:06:37;3.80;77.10
44509;DHT22;30214;52.246;14.408;2023-04-03T10:09:19;3.80;78.30
44509;DHT22;30214;52.246;14.408;2023-04-03T10:12:04;3.90;79.50
44509;DHT22;30214;52.246;14.408;2023-04-03T10:14:36;4.10;79.70
44509;DHT22;30214;52.246;14.408;2023-04-03T10:17:14;4.20;84.00
44509;DHT22;30214;52.246;14.408;2023-04-03T10:19:48;4.20;75.60
44509;DHT22;30214;52.246;14.408;2023-04-03T10:22:23;4.30;76.60
44509;DHT22;30214;52.246;14.408;2023-04-03T10:25:03;4.40;78.30
44509;DHT22;30214;52.246;14.408;2023-04-03T10:27:44;4.50;75.70
44509;DHT22;30214;52.246;14.408;2023-04-03T10:30:30;4.70;75.90
44509;DHT22;30214;52.246;14.408;2023-04-03T10:36:12;4.60;75.20
44509;DHT22;30214;52.246;14.408;2023-04-03T10:38:54;4.30;75.30
44509;DHT22;30214;52.246;14.408;2023-04-03T10:41:34;4.30;77.90
44509;DHT22;30214;52.246;14.408;2023-04-03T10:44:16;4.40;75.70
44509;DHT22;30214;52.246;14.408;2023-04-03T10:46:51;4.30;78.80
44509;DHT22;30214;52.246;14.408;2023-04-03T10:49:28;4.50;84.20
44509;DHT22;30214;52.246;14.408;2023-04-03T10:52:06;4.90;84.20
44509;DHT22;30214;52.246;14.408;2023-04-03T10:54:40;4.60;78.70
44509;DHT22;30214;52.246;14.408;2023-04-03T10:57:11;4.50;78.00
44509;DHT22;30214;52.246;14.408;2023-04-03T10:59:43;4.60;77.80
44509;DHT22;30214;52.246;14.408;2023-04-03T11:02:17;4.60;83.20
44509;DHT22;30214;52.246;14.408;2023-04-03T11:04:52;4.50;76.40
44509;DHT22;30214;52.246;14.408;2023-04-03T11:07:22;4.50;81.90
44509;DHT22;30214;52.246;14.408;2023-04-03T11:09:55;4.50;76.90
44509;DHT22;30214;52.246;14.408;2023-04-03T11:12:30;4.40;99.90
44509;DHT22;30214;52.246;14.408;2023-04-03T11:15:03;4.50;75.80
44509;DHT22;30214;52.246;14.408;2023-04-03T11:17:33;4.40;78.20
44509;DHT22;30214;52.246;14.408;2023-04-03T11:20:08;4.20;78.10
44509;DHT22;30214;52.246;14.408;2023-04-03T11:22:42;4.10;77.80
44509;DHT22;30214;52.246;14.408;2023-04-03T11:25:18;4.00;80.30
44509;DHT22;30214;52.246;14.408;2023-04-03T11:27:54;4.10;77.40
44509;DHT22;30214;52.246;14.408;2023-04-03T11:30:27;4.10;83.40
44509;DHT22;30214;52.246;14.408;2023-04-03T11:33:21;4.30;83.80
44509;DHT22;30214;52.246;14.408;2023-04-03T11:35:54;4.60;83.00
44509;DHT22;30214;52.246;14.408;2023-04-03T11:38:25;4.50;80.30
44509;DHT22;30214;52.246;14.408;2023-04-03T11:40:56;4.30;78.00
44509;DHT22;30214;52.246;14.408;2023-04-03T11:43:27;4.30;83.20
44509;DHT22;30214;52.246;14.408;2023-04-03T11:46:00;4.30;82.10
44509;DHT22;30214;52.246;14.408;2023-04-03T11:48:48;4.40;83.70
44509;DHT22;30214;52.246;14.408;2023-04-03T11:54:45;4.40;81.10
44509;DHT22;30214;52.246;14.408;2023-04-03T12:00:50;4.30;76.90
44509;DHT22;30214;52.246;14.408;2023-04-03T12:07:11;4.40;83.40
44509;DHT22;30214;52.246;14.408;2023-04-03T12:10:01;4.30;79.40
44509;DHT22;30214;52.246;14.408;2023-04-03T12:12:40;4.20;83.10
44509;DHT22;30214;52.246;14.408;2023-04-03T12:15:41;3.90;84.20
44509;DHT22;30214;52.246;14.408;2023-04-03T12:22:07;4.10;88.60
44509;DHT22;30214;52.246;14.408;2023-04-03T12:24:40;4.30;90.00
44509;DHT22;30214;52.246;14.408;2023-04-03T12:27:26;4.30;90.40
44509;DHT22;30214;52.246;14.408;2023-04-03T12:30:04;4.50;88.40
44509;DHT22;30214;52.246;14.408;2023-04-03T12:32:44;4.80;89.90
44509;DHT22;30214;52.246;14.408;2023-04-03T12:35:21;5.10;84.70
44509;DHT22;30214;52.246;14.408;2023-04-03T12:38:17;5.20;82.70
44509;DHT22;30214;52.246;14.408;2023-04-03T12:41:10;5.10;79.50
44509;DHT22;30214;52.246;14.408;2023-04-03T12:44:06;4.80;79.70
44509;DHT22;30214;52.246;14.408;2023-04-03T12:46:52;4.90;80.30
44509;DHT22;30214;52.246;14.408;2023-04-03T12:49:39;5.20;86.00
44509;DHT22;30214;52.246;14.408;2023-04-03T12:52:19;5.60;80.40
44509;DHT22;30214;52.246;14.408;2023-04-03T12:54:51;5.60;77.60
44509;DHT22;30214;52.246;14.408;2023-04-03T12:57:20;5.50;78.80
44509;DHT22;30214;52.246;14.408;2023-04-03T12:59:49;5.50;80.20
44509;DHT22;30214;52.246;14.408;2023-04-03T13:02:26;5.40;77.60
44509;DHT22;30214;52.246;14.408;2023-04-03T13:04:57;5.20;83.30
44509;DHT22;30214;52.246;14.408;2023-04-03T13:07:30;4.90;83.50
44509;DHT22;30214;52.246;14.408;2023-04-03T13:10:03;5.00;82.40
44509;DHT22;30214;52.246;14.408;2023-04-03T13:12:46;5.00;83.50
44509;DHT22;30214;52.246;14.408;2023-04-03T13:15:18;5.10;87.30
44509;DHT22;30214;52.246;14.408;2023-04-03T13:17:47;5.20;84.20
44509;DHT22;30214;52.246;14.408;2023-04-03T13:20:21;5.30;82.80
44509;DHT22;30214;52.246;14.408;2023-04-03T13:22:55;5.50;91.20
44509;DHT22;30214;52.246;14.408;2023-04-03T13:25:32;5.60;77.30
44509;DHT22;30214;52.246;14.408;2023-04-03T13:28:01;5.40;83.80
44509;DHT22;30214;52.246;14.408;2023-04-03T13:30:31;5.30;86.00
44509;DHT22;30214;52.246;14.408;2023-04-03T13:33:02;5.30;87.30
44509;DHT22;30214;52.246;14.408;2023-04-03T13:35:37;5.40;86.00
44509;DHT22;30214;52.246;14.408;2023-04-03T13:38:24;5.60;81.90
44509;DHT22;30214;52.246;14.408;2023-04-03T13:40:54;6.10;86.80
44509;DHT22;30214;52.246;14.408;2023-04-03T13:43:25;6.20;78.80
44509;DHT22;30214;52.246;14.408;2023-04-03T13:46:23;6.50;76.50
44509;DHT22;30214;52.246;14.408;2023-04-03T13:48:53;6.70;80.00
44509;DHT22;30214;52.246;14.408;2023-04-03T13:51:24;6.60;76.00
44509;DHT22;30214;52.246;14.408;2023-04-03T13:53:56;6.50;78.80
44509;DHT22;30214;52.246;14.408;2023-04-03T13:56:31;6.40;75.90
44509;DHT22;30214;52.246;14.408;2023-04-03T13:59:04;5.90;78.00
44509;DHT22;30214;52.246;14.408;2023-04-03T14:01:47;5.90;82.30
44509;DHT22;30214;52.246;14.408;2023-04-03T14:04:19;6.10;81.80
44509;DHT22;30214;52.246;14.408;2023-04-03T14:06:48;6.10;79.00
44509;DHT22;30214;52.246;14.408;2023-04-03T14:09:18;6.00;76.60
44509;DHT22;30214;52.246;14.408;2023-04-03T14:11:47;5.70;78.80
44509;DHT22;30214;52.246;14.408;2023-04-03T14:14:19;5.80;80.20
44509;DHT22;30214;52.246;14.408;2023-04-03T14:16:50;5.70;75.80
44509;DHT22;30214;52.246;14.408;2023-04-03T14:19:22;5.50;82.10
44509;DHT22;30214;52.246;14.408;2023-04-03T14:21:51;5.60;87.30
44509;DHT22;30214;52.246;14.408;2023-04-03T14:24:22;5.80;91.20
44509;DHT22;30214;52.246;14.408;2023-04-03T14:26:51;5.90;90.20
44509;DHT22;30214;52.246;14.408;2023-04-03T14:29:21;6.20;91.30
44509;DHT22;30214;52.246;14.408;2023-04-03T14:31:49;6.30;87.80
44509;DHT22;30214;52.246;14.408;2023-04-03T14:34:16;6.20;87.50
44509;DHT22;30214;52.246;14.408;2023-04-03T14:36:44;6.20;85.90
44509;DHT22;30214;52.246;14.408;2023-04-03T14:39:16;6.10;83.10
44509;DHT22;30214;52.246;14.408;2023-04-03T14:41:46;6.00;83.40
44509;DHT22;30214;52.246;14.408;2023-04-03T14:44:13;5.80;82.30
44509;DHT22;30214;52.246;14.408;2023-04-03T14:46:43;5.40;87.70
44509;DHT22;30214;52.246;14.408;2023-04-03T14:49:14;5.40;90.80
44509;DHT22;30214;52.246;14.408;2023-04-03T14:51:44;5.50;90.10
44509;DHT22;30214;52.246;14.408;2023-04-03T14:54:14;5.50;91.50
44509;DHT22;30214;52.246;14.408;2023-04-03T14:56:45;5.70;92.00
44509;DHT22;30214;52.246;14.408;2023-04-03T14:59:13;5.70;92.20
44509;DHT22;30214;52.246;14.408;2023-04-03T15:01:43;5.60;92.20
44509;DHT22;30214;52.246;14.408;2023-04-03T15:04:12;5.70;92.20
44509;DHT22;30214;52.246;14.408;2023-04-03T15:06:40;5.70;92.80
44509;DHT22;30214;52.246;14.408;2023-04-03T15:09:18;5.40;92.70
44509;DHT22;30214;52.246;14.408;2023-04-03T15:11:48;5.40;93.70
44509;DHT22;30214;52.246;14.408;2023-04-03T15:14:16;5.30;93.60
44509;DHT22;30214;52.246;14.408;2023-04-03T15:16:44;5.30;99.90
44509;DHT22;30214;52.246;14.408;2023-04-03T15:19:11;5.40;96.50
44509;DHT22;30214;52.246;14.408;2023-04-03T15:21:39;5.40;96.20
44509;DHT22;30214;52.246;14.408;2023-04-03T15:24:08;5.30;97.00
44509;DHT22;30214;52.246;14.408;2023-04-03T15:26:36;5.20;96.70
44509;DHT22;30214;52.246;14.408;2023-04-03T15:29:06;5.30;95.80
44509;DHT22;30214;52.246;14.408;2023-04-03T15:31:33;5.20;94.90
44509;DHT22;30214;52.246;14.408;2023-04-03T15:34:01;5.30;94.20
44509;DHT22;30214;52.246;14.408;2023-04-03T15:36:29;5.40;93.80
44509;DHT22;30214;52.246;14.408;2023-04-03T15:38:56;5.40;92.80
44509;DHT22;30214;52.246;14.408;2023-04-03T15:41:23;5.40;94.30
44509;DHT22;30214;52.246;14.408;2023-04-03T15:43:50;5.50;94.20
44509;DHT22;30214;52.246;14.408;2023-04-03T15:46:19;5.60;94.90
44509;DHT22;30214;52.246;14.408;2023-04-03T15:48:46;5.70;94.20
44509;DHT22;30214;52.246;14.408;2023-04-03T15:51:15;5.80;94.70
44509;DHT22;30214;52.246;14.408;2023-04-03T15:53:42;5.80;94.60
44509;DHT22;30214;52.246;14.408;2023-04-03T15:56:09;5.80;94.80
44509;DHT22;30214;52.246;14.408;2023-04-03T15:58:37;5.70;95.00
44509;DHT22;30214;52.246;14.408;2023-04-03T16:01:06;5.70;95.00
44509;DHT22;30214;52.246;14.408;2023-04-03T16:03:39;5.60;95.00
44509;DHT22;30214;52.246;14.408;2023-04-03T16:06:10;5.70;95.10
44509;DHT22;30214;52.246;14.408;2023-04-03T16:08:38;5.50;96.00
44509;DHT22;30214;52.246;14.408;2023-04-03T16:11:05;5.40;96.90